createdAt,value
2022-12-03T00:00:23.151Z,16.60
2022-12-03T00:02:49.935Z,19.63
2022-12-03T00:05:16.657Z,16.60
2022-12-03T00:07:43.354Z,15.50
2022-12-03T00:10:10.684Z,19.13
2022-12-03T00:12:37.453Z,17.97
2022-12-03T00:15:05.768Z,18.80
2022-12-03T00:17:32.454Z,20.80
2022-12-03T00:19:59.020Z,21.83
2022-12-03T00:22:25.645Z,21.07
2022-12-03T00:24:52.476Z,21.13
2022-12-03T00:27:19.266Z,22.43
2022-12-03T00:29:45.864Z,21.23
2022-12-03T00:32:13.971Z,21.87
2022-12-03T00:34:40.578Z,22.37
2022-12-03T00:37:07.184Z,22.73
2022-12-03T00:39:36.534Z,18.73
2022-12-03T00:42:03.211Z,20.93
2022-12-03T00:44:29.796Z,20.60
2022-12-03T00:46:56.434Z,20.63
2022-12-03T00:49:23.069Z,21.20
2022-12-03T00:51:49.687Z,18.30
2022-12-03T00:54:16.277Z,21.67
2022-12-03T00:56:42.869Z,19.43
2022-12-03T00:59:09.589Z,20.47
2022-12-03T01:01:36.234Z,20.90
2022-12-03T01:04:02.863Z,19.47
2022-12-03T01:06:29.569Z,19.10
2022-12-03T01:08:58.594Z,21.17
2022-12-03T01:11:37.333Z,20.63
2022-12-03T01:14:15.349Z,20.93
2022-12-03T01:16:42.224Z,20.00
2022-12-03T01:19:10.616Z,20.70
2022-12-03T01:21:37.954Z,19.40
2022-12-03T01:24:05.064Z,20.40
2022-12-03T01:26:32.775Z,20.80
2022-12-03T01:28:59.358Z,18.70
2022-12-03T01:31:44.619Z,21.50
2022-12-03T01:34:11.406Z,18.10
2022-12-03T01:36:37.999Z,17.40
2022-12-03T01:39:04.968Z,18.13
2022-12-03T01:41:32.225Z,16.87
2022-12-03T01:43:59.092Z,17.77
2022-12-03T01:46:31.472Z,17.07
2022-12-03T01:48:58.142Z,18.60
2022-12-03T01:51:24.739Z,17.63
2022-12-03T01:53:51.377Z,19.20
2022-12-03T01:56:18.836Z,19.30
2022-12-03T01:58:46.191Z,20.10
2022-12-03T02:01:15.967Z,20.30
2022-12-03T02:03:43.759Z,21.63
2022-12-03T02:06:18.925Z,20.10
2022-12-03T02:08:46.669Z,20.27
2022-12-03T02:11:20.850Z,19.30
2022-12-03T02:13:49.162Z,19.80
2022-12-03T02:16:15.873Z,21.30
2022-12-03T02:18:43.054Z,18.23
2022-12-03T02:21:15.698Z,20.63
2022-12-03T02:23:54.911Z,19.57
2022-12-03T02:26:21.747Z,21.07
2022-12-03T02:28:48.347Z,20.70
2022-12-03T02:31:17.287Z,19.80
2022-12-03T02:33:44.040Z,20.50
2022-12-03T02:36:11.182Z,19.10
2022-12-03T02:38:37.967Z,18.43
2022-12-03T02:41:07.962Z,18.90
2022-12-03T02:43:34.599Z,20.53
2022-12-03T02:46:01.950Z,18.30
2022-12-03T02:48:30.173Z,19.30
2022-12-03T02:51:03.166Z,19.10
2022-12-03T02:53:33.653Z,17.97
2022-12-03T02:56:01.967Z,18.00
2022-12-03T02:58:29.977Z,17.77
2022-12-03T03:00:56.687Z,18.60
2022-12-03T03:03:25.140Z,18.03
2022-12-03T03:05:52.596Z,17.70
2022-12-03T03:08:19.513Z,17.03
2022-12-03T03:10:47.591Z,17.20
2022-12-03T03:13:15.786Z,17.77
2022-12-03T03:15:42.734Z,18.90
2022-12-03T03:18:10.704Z,17.47
2022-12-03T03:20:37.770Z,19.40
2022-12-03T03:23:22.092Z,17.80
2022-12-03T03:25:54.004Z,17.60
2022-12-03T03:28:21.876Z,16.83
2022-12-03T03:30:48.708Z,17.10
2022-12-03T03:33:15.801Z,17.30
2022-12-03T03:35:43.939Z,17.27
2022-12-03T03:38:11.380Z,18.17
2022-12-03T03:40:39.257Z,18.60
2022-12-03T03:43:06.218Z,16.60
2022-12-03T03:45:33.133Z,17.57
2022-12-03T03:48:00.622Z,17.80
2022-12-03T03:50:33.260Z,18.53
2022-12-03T03:53:01.538Z,17.73
2022-12-03T03:55:28.440Z,15.97
2022-12-03T03:57:55.115Z,16.47
2022-12-03T04:00:24.266Z,16.17
2022-12-03T04:02:57.068Z,14.33
2022-12-03T04:05:24.495Z,17.10
2022-12-03T04:07:53.899Z,15.80
2022-12-03T04:10:42.360Z,16.73
2022-12-03T04:13:09.009Z,15.77
2022-12-03T04:15:35.592Z,17.17
2022-12-03T04:18:20.707Z,15.60
2022-12-03T04:20:47.376Z,16.60
2022-12-03T04:23:14.035Z,18.20
2022-12-03T04:25:59.206Z,20.00
2022-12-03T04:28:44.751Z,18.33
2022-12-03T04:31:30.152Z,18.63
2022-12-03T04:34:15.302Z,18.07
2022-12-03T04:36:44.285Z,16.53
2022-12-03T04:39:10.967Z,19.33
2022-12-03T04:41:37.697Z,19.90
2022-12-03T04:44:24.700Z,19.43
2022-12-03T04:46:51.252Z,18.40
2022-12-03T04:49:20.063Z,17.60
2022-12-03T04:51:46.708Z,17.60
2022-12-03T04:54:13.344Z,19.77
2022-12-03T04:56:39.891Z,18.47
2022-12-03T04:59:08.982Z,19.53
2022-12-03T05:01:39.431Z,18.23
2022-12-03T05:04:06.389Z,17.33
2022-12-03T05:06:33.024Z,18.73
2022-12-03T05:08:59.631Z,18.60
2022-12-03T05:11:26.320Z,17.33
2022-12-03T05:13:56.145Z,17.03
2022-12-03T05:16:22.811Z,18.10
2022-12-03T05:18:49.544Z,17.73
2022-12-03T05:21:16.213Z,17.20
2022-12-03T05:23:45.043Z,17.70
2022-12-03T05:26:14.128Z,17.40
2022-12-03T05:28:45.193Z,16.30
2022-12-03T05:31:14.933Z,17.90
2022-12-03T05:33:49.116Z,15.57
2022-12-03T05:36:15.794Z,15.83
2022-12-03T05:38:47.137Z,18.60
2022-12-03T05:41:35.085Z,17.77
2022-12-03T05:44:01.664Z,17.03
2022-12-03T05:46:28.354Z,17.50
2022-12-03T05:48:54.923Z,17.33
2022-12-03T05:51:21.479Z,15.87
2022-12-03T05:53:48.116Z,17.30
2022-12-03T05:56:14.714Z,17.47
2022-12-03T05:58:41.360Z,17.13
2022-12-03T06:01:08.434Z,18.17
2022-12-03T06:03:35.245Z,16.03
2022-12-03T06:06:02.030Z,16.20
2022-12-03T06:08:28.622Z,16.87
2022-12-03T06:10:55.208Z,16.27
2022-12-03T06:13:21.832Z,17.13
2022-12-03T06:15:48.493Z,15.77
2022-12-03T06:18:15.219Z,15.63
2022-12-03T06:20:41.764Z,15.03
2022-12-03T06:23:08.437Z,14.67
2022-12-03T06:25:35.053Z,14.77
2022-12-03T06:28:01.660Z,15.17
2022-12-03T06:30:30.685Z,15.30
2022-12-03T06:32:57.712Z,15.40
2022-12-03T06:35:26.729Z,12.57
2022-12-03T06:38:02.543Z,15.47
2022-12-03T06:40:29.258Z,14.13
2022-12-03T06:42:55.944Z,14.73
2022-12-03T06:45:29.854Z,15.23
2022-12-03T06:47:56.500Z,14.70
2022-12-03T06:50:25.999Z,12.77
2022-12-03T06:53:01.541Z,14.23
2022-12-03T06:55:28.169Z,15.20
2022-12-03T06:57:57.287Z,14.37
2022-12-03T07:00:35.363Z,14.87
2022-12-03T07:03:02.091Z,14.30
2022-12-03T07:05:28.804Z,14.53
2022-12-03T07:08:03.189Z,14.43
2022-12-03T07:10:29.886Z,14.83
2022-12-03T07:12:56.413Z,15.60
2022-12-03T07:15:25.324Z,13.33
2022-12-03T07:18:00.787Z,15.30
2022-12-03T07:20:27.507Z,15.10
2022-12-03T07:22:56.932Z,14.17
2022-12-03T07:25:26.997Z,15.00
2022-12-03T07:27:58.988Z,17.20
2022-12-03T07:30:28.187Z,16.77
2022-12-03T07:32:56.874Z,17.03
2022-12-03T07:35:30.928Z,17.83
2022-12-03T07:37:57.574Z,16.10
2022-12-03T07:40:26.680Z,17.23
2022-12-03T07:42:56.303Z,17.20
2022-12-03T07:45:30.554Z,15.73
2022-12-03T07:47:57.167Z,17.33
2022-12-03T07:50:28.305Z,17.60
2022-12-03T07:52:55.527Z,19.30
2022-12-03T07:55:25.279Z,20.53
2022-12-03T07:57:57.259Z,19.40
2022-12-03T08:00:26.518Z,20.07
2022-12-03T08:03:00.659Z,21.83
2022-12-03T08:05:29.476Z,21.20
2022-12-03T08:07:58.361Z,21.50
2022-12-03T08:10:26.382Z,23.10
2022-12-03T08:12:53.837Z,22.90
2022-12-03T08:15:24.245Z,22.00
2022-12-03T08:18:00.877Z,21.50
2022-12-03T08:20:39.287Z,22.67
2022-12-03T08:23:32.217Z,21.77
2022-12-03T08:26:02.239Z,20.57
2022-12-03T08:28:28.963Z,22.90
2022-12-03T08:31:19.532Z,21.43
2022-12-03T08:33:54.199Z,23.83
2022-12-03T08:36:26.798Z,23.70
2022-12-03T08:38:59.656Z,23.23
2022-12-03T08:41:46.859Z,21.80
2022-12-03T08:44:19.587Z,23.97
2022-12-03T08:46:50.282Z,20.73
2022-12-03T08:49:17.403Z,24.03
2022-12-03T08:51:44.320Z,23.63
2022-12-03T08:54:15.100Z,24.03
2022-12-03T08:56:41.888Z,22.73
2022-12-03T08:59:30.948Z,22.90
2022-12-03T09:01:59.021Z,22.73
2022-12-03T09:04:37.613Z,22.00
2022-12-03T09:07:04.673Z,23.03
2022-12-03T09:09:31.469Z,22.37
2022-12-03T09:11:58.327Z,21.70
2022-12-03T09:14:25.023Z,21.87
2022-12-03T09:16:55.926Z,23.07
2022-12-03T09:19:24.420Z,24.50
2022-12-03T09:21:51.216Z,19.53
2022-12-03T09:24:17.946Z,23.43
2022-12-03T09:26:44.688Z,21.70
2022-12-03T09:29:12.636Z,22.07
2022-12-03T09:31:39.944Z,22.93
2022-12-03T09:34:07.006Z,24.97
2022-12-03T09:36:33.800Z,25.10
2022-12-03T09:39:02.540Z,24.20
2022-12-03T09:41:29.177Z,23.10
2022-12-03T09:44:04.939Z,23.53
2022-12-03T09:46:32.779Z,24.43
2022-12-03T09:49:00.971Z,21.47
2022-12-03T09:51:32.014Z,23.80
2022-12-03T09:54:07.542Z,22.20
2022-12-03T09:56:37.353Z,23.47
2022-12-03T09:59:09.423Z,24.03
2022-12-03T10:01:36.385Z,23.53
2022-12-03T10:04:03.199Z,23.23
2022-12-03T10:06:30.606Z,23.90
2022-12-03T10:08:57.455Z,22.47
2022-12-03T10:11:25.567Z,22.43
2022-12-03T10:13:56.605Z,23.83
2022-12-03T10:16:25.185Z,22.80
2022-12-03T10:18:54.410Z,23.50
2022-12-03T10:21:31.517Z,22.80
2022-12-03T10:24:24.069Z,23.07
2022-12-03T10:27:20.589Z,21.43
2022-12-03T10:29:57.978Z,21.30
2022-12-03T10:32:43.471Z,23.33
2022-12-03T10:35:12.033Z,24.00
2022-12-03T10:38:00.330Z,23.13
2022-12-03T10:40:34.476Z,25.23
2022-12-03T10:43:19.172Z,24.70
2022-12-03T10:45:46.651Z,23.50
2022-12-03T10:48:21.704Z,24.73
2022-12-03T10:51:04.905Z,24.23
2022-12-03T10:53:35.778Z,22.97
2022-12-03T10:56:05.290Z,24.10
2022-12-03T10:58:35.867Z,23.27
2022-12-03T11:01:06.840Z,23.10
2022-12-03T11:03:35.368Z,21.57
2022-12-03T11:06:02.525Z,23.70
2022-12-03T11:08:38.359Z,24.20
2022-12-03T11:11:17.110Z,22.37
2022-12-03T11:13:49.432Z,22.60
2022-12-03T11:16:45.311Z,23.13
2022-12-03T11:19:21.776Z,21.57
2022-12-03T11:22:03.665Z,23.30
2022-12-03T11:24:37.930Z,22.93
2022-12-03T11:27:08.023Z,24.50
2022-12-03T11:29:49.620Z,22.27
2022-12-03T11:32:38.116Z,22.50
2022-12-03T11:35:23.014Z,23.43
2022-12-03T11:37:54.365Z,23.13
2022-12-03T11:40:22.118Z,22.77
2022-12-03T11:42:49.383Z,21.67
2022-12-03T11:45:28.615Z,22.07
2022-12-03T11:47:58.405Z,21.17
2022-12-03T11:50:42.943Z,21.63
2022-12-03T11:53:25.079Z,21.57
2022-12-03T11:56:10.750Z,23.23
2022-12-03T11:58:48.283Z,21.47
2022-12-03T12:01:38.952Z,24.00
2022-12-03T12:04:12.543Z,22.17
2022-12-03T12:06:44.640Z,23.50
2022-12-03T12:09:14.624Z,24.53
2022-12-03T12:11:41.931Z,22.40
2022-12-03T12:14:12.971Z,23.43
2022-12-03T12:16:57.935Z,22.60
2022-12-03T12:19:37.475Z,23.90
2022-12-03T12:22:25.089Z,22.90
2022-12-03T12:24:53.436Z,22.87
2022-12-03T12:27:49.300Z,20.57
2022-12-03T12:30:18.578Z,23.63
2022-12-03T12:33:00.231Z,22.17
2022-12-03T12:35:33.087Z,21.60
2022-12-03T12:38:14.449Z,23.97
2022-12-03T12:40:52.439Z,22.23
2022-12-03T12:43:33.215Z,19.60
2022-12-03T12:46:24.948Z,21.00
2022-12-03T12:48:55.244Z,19.97
2022-12-03T12:51:25.955Z,22.67
2022-12-03T12:53:53.771Z,22.83
2022-12-03T12:56:33.753Z,25.00
2022-12-03T12:59:16.508Z,21.30
2022-12-03T13:01:47.320Z,23.80
2022-12-03T13:04:23.898Z,23.40
2022-12-03T13:06:53.400Z,24.73
2022-12-03T13:09:22.787Z,24.07
2022-12-03T13:12:00.988Z,23.10
2022-12-03T13:14:47.997Z,24.80
2022-12-03T13:17:19.691Z,24.70
2022-12-03T13:19:50.668Z,25.10
2022-12-03T13:22:34.406Z,23.73
2022-12-03T13:25:04.055Z,25.00
2022-12-03T13:27:31.013Z,24.13
2022-12-03T13:30:08.947Z,24.90
2022-12-03T13:32:43.172Z,24.27
2022-12-03T13:35:09.881Z,24.80
2022-12-03T13:37:37.290Z,25.67
2022-12-03T13:40:34.888Z,26.00
2022-12-03T13:43:11.387Z,24.00
2022-12-03T13:45:43.953Z,22.87
2022-12-03T13:48:18.602Z,22.23
2022-12-03T13:50:46.815Z,22.60
2022-12-03T13:53:27.411Z,23.53
2022-12-03T13:56:38.110Z,24.47
2022-12-03T13:59:06.283Z,23.87
2022-12-03T14:01:37.762Z,23.40
2022-12-03T14:04:11.751Z,23.17
2022-12-03T14:06:40.673Z,24.33
2022-12-03T14:09:15.808Z,22.87
2022-12-03T14:12:09.898Z,25.70
2022-12-03T14:14:40.038Z,24.40
2022-12-03T14:17:13.961Z,22.13
2022-12-03T14:19:44.740Z,24.43
2022-12-03T14:22:20.115Z,24.50
2022-12-03T14:24:53.276Z,23.70
2022-12-03T14:27:29.576Z,24.30
2022-12-03T14:30:13.886Z,26.20
2022-12-03T14:32:58.655Z,25.13
2022-12-03T14:35:38.892Z,22.90
2022-12-03T14:38:20.128Z,23.20
2022-12-03T14:41:06.256Z,27.87
2022-12-03T14:43:38.993Z,24.07
2022-12-03T14:46:18.169Z,26.40
2022-12-03T14:48:52.598Z,23.97
2022-12-03T14:51:25.505Z,24.10
2022-12-03T14:53:55.577Z,25.30
2022-12-03T14:56:22.526Z,24.50
2022-12-03T14:58:55.328Z,24.50
2022-12-03T15:01:22.300Z,26.00
2022-12-03T15:03:49.360Z,23.10
2022-12-03T15:06:16.092Z,24.30
2022-12-03T15:08:48.111Z,27.17
2022-12-03T15:11:18.001Z,24.17
2022-12-03T15:14:02.518Z,24.50
2022-12-03T15:16:29.523Z,24.63
2022-12-03T15:18:56.735Z,26.43
2022-12-03T15:21:24.001Z,24.57
2022-12-03T15:23:50.653Z,24.70
2022-12-03T15:26:17.378Z,23.80
2022-12-03T15:28:48.113Z,23.57
2022-12-03T15:31:18.337Z,25.13
2022-12-03T15:33:45.271Z,23.07
2022-12-03T15:36:14.658Z,25.20
2022-12-03T15:38:44.391Z,24.27
2022-12-03T15:41:24.689Z,22.60
2022-12-03T15:44:05.084Z,26.87
2022-12-03T15:46:39.188Z,23.40
2022-12-03T15:49:08.434Z,25.07
2022-12-03T15:51:35.406Z,26.27
2022-12-03T15:54:02.199Z,27.80
2022-12-03T15:56:28.756Z,26.20
2022-12-03T15:59:00.343Z,25.13
2022-12-03T16:01:26.977Z,22.07
2022-12-03T16:03:53.635Z,26.30
2022-12-03T16:06:20.304Z,21.20
2022-12-03T16:08:48.128Z,24.67
2022-12-03T16:11:18.075Z,27.23
2022-12-03T16:13:47.063Z,26.03
2022-12-03T16:16:13.805Z,25.60
2022-12-03T16:18:48.155Z,25.63
2022-12-03T16:21:14.829Z,25.30
2022-12-03T16:23:46.775Z,24.50
2022-12-03T16:26:16.498Z,27.17
2022-12-03T16:28:46.763Z,25.80
2022-12-03T16:31:16.270Z,26.83
2022-12-03T16:33:47.699Z,24.03
2022-12-03T16:36:19.001Z,24.93
2022-12-03T16:38:45.784Z,25.50
2022-12-03T16:41:26.564Z,23.83
2022-12-03T16:43:53.171Z,26.00
2022-12-03T16:46:26.160Z,27.23
2022-12-03T16:48:55.491Z,26.63
2022-12-03T16:51:28.025Z,28.57
2022-12-03T16:53:55.045Z,26.73
2022-12-03T16:56:21.596Z,27.13
2022-12-03T16:58:48.260Z,27.57
2022-12-03T17:01:16.311Z,26.63
2022-12-03T17:03:42.965Z,25.10
2022-12-03T17:06:09.658Z,28.30
2022-12-03T17:08:49.653Z,26.47
2022-12-03T17:11:17.074Z,25.70
2022-12-03T17:13:44.673Z,27.87
2022-12-03T17:16:11.343Z,26.70
2022-12-03T17:18:37.940Z,27.80
2022-12-03T17:21:04.659Z,25.60
2022-12-03T17:23:31.284Z,25.73
2022-12-03T17:25:57.843Z,28.23
2022-12-03T17:28:26.750Z,27.43
2022-12-03T17:30:56.545Z,26.63
2022-12-03T17:33:25.058Z,26.50
2022-12-03T17:35:51.723Z,29.27
2022-12-03T17:38:18.302Z,26.30
2022-12-03T17:40:47.244Z,29.80
2022-12-03T17:43:13.840Z,27.07
2022-12-03T17:45:40.624Z,28.47
2022-12-03T17:48:08.180Z,26.67
2022-12-03T17:50:35.388Z,26.93
2022-12-03T17:53:04.128Z,26.90
2022-12-03T17:55:38.334Z,29.50
2022-12-03T17:58:09.323Z,27.40
2022-12-03T18:00:35.944Z,28.97
2022-12-03T18:03:02.609Z,27.27
2022-12-03T18:05:29.183Z,27.90
2022-12-03T18:07:55.798Z,27.87
2022-12-03T18:10:22.726Z,29.90
2022-12-03T18:13:01.498Z,30.93
2022-12-03T18:15:28.817Z,28.40
2022-12-03T18:17:55.386Z,27.80
2022-12-03T18:20:29.048Z,29.30
2022-12-03T18:22:55.890Z,28.80
2022-12-03T18:25:22.477Z,28.30
2022-12-03T18:27:49.194Z,28.80
2022-12-03T18:30:15.838Z,30.87
2022-12-03T18:32:44.810Z,28.50
2022-12-03T18:35:11.479Z,27.63
2022-12-03T18:37:38.178Z,29.47
2022-12-03T18:40:12.803Z,29.10
2022-12-03T18:42:39.951Z,28.50
2022-12-03T18:45:06.973Z,29.37
2022-12-03T18:47:33.682Z,29.07
2022-12-03T18:50:00.619Z,27.83
2022-12-03T18:52:27.454Z,28.10
2022-12-03T18:54:57.651Z,29.83
2022-12-03T18:57:24.214Z,29.40
2022-12-03T18:59:50.816Z,29.37
2022-12-03T19:05:08.145Z,28.17
2022-12-03T19:07:34.927Z,27.13
2022-12-03T19:10:01.589Z,27.17
2022-12-03T19:12:28.182Z,30.20
2022-12-03T19:14:54.851Z,28.13
2022-12-03T19:17:21.703Z,27.90
2022-12-03T19:19:48.436Z,29.03
2022-12-03T19:22:15.084Z,29.53
2022-12-03T19:24:41.708Z,28.80
2022-12-03T19:27:08.330Z,29.50
2022-12-03T19:29:35.232Z,25.70
2022-12-03T19:32:02.000Z,28.80
2022-12-03T19:34:35.967Z,28.93
2022-12-03T19:37:08.740Z,28.17
2022-12-03T19:39:43.184Z,27.53
2022-12-03T19:42:10.099Z,27.27
2022-12-03T19:44:36.806Z,26.40
2022-12-03T19:47:13.119Z,25.37
2022-12-03T19:49:39.839Z,27.60
2022-12-03T19:52:06.479Z,28.87
2022-12-03T19:54:36.713Z,27.27
2022-12-03T19:57:19.707Z,28.00
2022-12-03T19:59:52.638Z,25.27
2022-12-03T20:02:19.653Z,26.20
2022-12-03T20:04:46.344Z,26.90
2022-12-03T20:07:12.948Z,26.90
2022-12-03T20:09:39.598Z,26.00
2022-12-03T20:12:07.824Z,28.13
2022-12-03T20:14:34.392Z,25.07
2022-12-03T20:17:01.154Z,25.70
2022-12-03T20:19:27.870Z,26.43
2022-12-03T20:21:59.046Z,25.83
2022-12-03T20:24:28.897Z,28.03
2022-12-03T20:26:55.511Z,27.10
2022-12-03T20:29:22.242Z,26.03
2022-12-03T20:31:48.896Z,26.20
2022-12-03T20:34:15.646Z,26.17
2022-12-03T20:36:44.164Z,25.93
2022-12-03T20:39:10.763Z,25.03
2022-12-03T20:41:37.899Z,27.23
2022-12-03T20:44:07.461Z,25.93
2022-12-03T20:46:34.425Z,24.67
2022-12-03T20:49:01.279Z,25.23
2022-12-03T20:51:29.924Z,25.57
2022-12-03T20:53:57.156Z,25.67
2022-12-03T20:56:26.324Z,25.43
2022-12-03T20:58:53.726Z,25.90
2022-12-03T21:01:25.121Z,26.87
2022-12-03T21:03:52.758Z,28.10
2022-12-03T21:06:20.792Z,27.80
2022-12-03T21:08:47.979Z,26.63
2022-12-03T21:11:19.162Z,27.10
2022-12-03T21:13:46.507Z,26.47
2022-12-03T21:16:16.092Z,25.77
2022-12-03T21:18:43.110Z,25.93
2022-12-03T21:21:14.902Z,26.70
2022-12-03T21:23:41.915Z,26.97
2022-12-03T21:26:11.337Z,25.83
2022-12-03T21:28:39.637Z,26.80
2022-12-03T21:31:08.644Z,27.33
2022-12-03T21:33:35.619Z,26.57
2022-12-03T21:36:02.726Z,26.77
2022-12-03T21:38:29.988Z,25.80
2022-12-03T21:40:57.001Z,27.07
2022-12-03T21:43:24.099Z,26.90
2022-12-03T21:45:51.428Z,25.63
2022-12-03T21:48:18.190Z,25.40
2022-12-03T21:50:45.381Z,26.97
2022-12-03T21:53:12.492Z,26.23
2022-12-03T21:55:43.060Z,25.37
2022-12-03T21:58:09.723Z,27.60
2022-12-03T22:00:36.608Z,26.20
2022-12-03T22:03:03.363Z,27.30
2022-12-03T22:05:30.141Z,25.73
2022-12-03T22:07:58.273Z,26.47
2022-12-03T22:10:26.975Z,26.73
2022-12-03T22:12:53.580Z,28.00
2022-12-03T22:15:20.152Z,25.73
2022-12-03T22:17:47.455Z,24.50
2022-12-03T22:20:14.176Z,25.80
2022-12-03T22:22:40.830Z,25.47
2022-12-03T22:25:08.042Z,28.13
2022-12-03T22:27:34.714Z,25.17
2022-12-03T22:30:01.682Z,24.37
2022-12-03T22:32:28.348Z,25.93
2022-12-03T22:34:55.011Z,26.93
2022-12-03T22:37:21.684Z,24.10
2022-12-03T22:39:48.313Z,25.77
2022-12-03T22:42:14.988Z,24.80
2022-12-03T22:44:41.589Z,24.90
2022-12-03T22:47:08.203Z,25.77
2022-12-03T22:49:34.931Z,27.47
2022-12-03T22:52:01.607Z,25.13
2022-12-03T22:54:28.234Z,26.77
2022-12-03T22:56:54.832Z,26.60
2022-12-03T22:59:21.562Z,31.13
2022-12-03T23:01:48.100Z,27.13
2022-12-03T23:04:14.766Z,25.10
2022-12-03T23:06:41.861Z,24.30
2022-12-03T23:09:08.506Z,24.27
2022-12-03T23:11:35.647Z,23.40
2022-12-03T23:14:02.539Z,24.30
2022-12-03T23:16:31.190Z,23.60
2022-12-03T23:18:59.537Z,24.30
2022-12-03T23:21:30.504Z,25.03
2022-12-03T23:23:59.088Z,24.83
2022-12-03T23:26:26.227Z,25.50
2022-12-03T23:28:53.048Z,25.50
2022-12-03T23:31:24.903Z,26.70
2022-12-03T23:33:52.846Z,26.23
2022-12-03T23:36:20.226Z,26.47
2022-12-03T23:38:47.061Z,25.87
2022-12-03T23:41:16.316Z,26.60
2022-12-03T23:43:43.220Z,24.77
2022-12-03T23:46:15.496Z,25.53
2022-12-03T23:48:42.659Z,26.57
2022-12-03T23:51:14.535Z,25.43
2022-12-03T23:53:41.466Z,24.53
2022-12-03T23:56:10.475Z,26.60
2022-12-03T23:58:38.643Z,26.70
